Time;durP1;ratioP1;P1;durP2;ratioP2;P2;SDS_P1;SDS_P2;PMS_P1;PMS_P2;Temp;Humidity;BMP_temperature;BMP_pressure;BME280_temperature;BME280_humidity;BME280_pressure;Samples;Min_cycle;Max_cycle;Signal;HPM_P1;HPM_P2
2022/05/11 00:02:14;;;;;;;;;10.33;5.00;;;;;;;;4921150;28;45772;-75
2022/05/11 00:04:39;;;;;;;;;4.67;4.67;;;;;;;;4922489;28;44842;-78
2022/05/11 00:07:05;;;;;;;;;6.00;5.00;;;;;;;;4912547;28;46713;-74
2022/05/11 00:09:30;;;;;;;;;5.67;4.33;;;;;;;;4935028;28;45806;-77
2022/05/11 00:11:55;;;;;;;;;5.00;5.00;;;;;;;;4917321;28;45626;-78
2022/05/11 00:14:21;;;;;;;;;3.33;3.33;;;;;;;;4917673;28;45508;-75
2022/05/11 00:16:46;;;;;;;;;3.00;3.00;;;;;;;;4934116;28;45457;-75
2022/05/11 00:19:12;;;;;;;;;3.33;3.33;;;;;;;;4933500;28;45728;-73
2022/05/11 00:21:38;;;;;;;;;7.33;5.00;;;;;;;;4934076;28;46165;-77
2022/05/11 00:24:05;;;;;;;;;7.67;3.67;;;;;;;;4934943;28;45383;-80
2022/05/11 00:26:31;;;;;;;;;7.00;5.67;;;;;;;;4934635;28;46538;-78
2022/05/11 00:28:57;;;;;;;;;3.00;2.67;;;;;;;;4934271;28;45744;-75
2022/05/11 00:31:22;;;;;;;;;2.33;2.33;;;;;;;;4934378;28;45621;-73
2022/05/11 00:33:47;;;;;;;;;3.33;3.33;;;;;;;;4934612;28;45766;-77
2022/05/11 00:36:13;;;;;;;;;5.00;3.33;;;;;;;;4922212;28;48604;-73
2022/05/11 00:38:40;;;;;;;;;3.00;3.00;;;;;;;;4918315;28;45823;-73
2022/05/11 00:41:06;;;;;;;;;4.67;3.00;;;;;;;;4914605;28;45451;-74
2022/05/11 00:43:36;;;;;;;;;4.67;4.00;;;;;;;;4914743;28;45867;-78
2022/05/11 00:46:07;;;;;;;;;4.00;4.00;;;;;;;;4914666;28;45625;-78
2022/05/11 00:51:17;;;;;;;;;5.00;5.00;;;;;;;;4928468;28;45784;-73
2022/05/11 00:53:45;;;;;;;;;5.00;4.67;;;;;;;;4933330;28;45599;-73
2022/05/11 00:56:11;;;;;;;;;6.33;5.00;;;;;;;;4933628;28;45468;-77
2022/05/11 00:58:39;;;;;;;;;3.67;3.67;;;;;;;;4933949;28;45431;-73
2022/05/11 01:01:05;;;;;;;;;3.00;3.00;;;;;;;;4934006;28;45489;-78
2022/05/11 01:03:33;;;;;;;;;5.33;3.00;;;;;;;;4936306;28;45538;-75
2022/05/11 01:05:59;;;;;;;;;5.67;4.00;;;;;;;;4950944;28;47122;-76
2022/05/11 01:08:27;;;;;;;;;3.67;3.67;;;;;;;;4951613;28;45484;-74
2022/05/11 01:10:53;;;;;;;;;4.00;4.00;;;;;;;;4936642;28;45923;-76
2022/05/11 01:13:18;;;;;;;;;6.33;5.67;;;;;;;;4940095;28;45494;-74
2022/05/11 01:15:48;;;;;;;;;3.00;3.00;;;;;;;;4938998;28;46383;-76
2022/05/11 01:18:14;;;;;;;;;6.00;3.00;;;;;;;;4951642;28;45707;-78
2022/05/11 01:20:39;;;;;;;;;4.00;3.00;;;;;;;;4939591;28;45784;-75
2022/05/11 01:23:13;;;;;;;;;3.00;3.00;;;;;;;;4918451;28;45720;-77
2022/05/11 01:25:38;;;;;;;;;4.00;3.00;;;;;;;;4922377;28;45577;-73
2022/05/11 01:28:10;;;;;;;;;6.00;6.00;;;;;;;;4936969;28;45549;-73
2022/05/11 01:30:35;;;;;;;;;5.33;4.33;;;;;;;;4932757;28;45443;-73
2022/05/11 01:33:01;;;;;;;;;3.00;3.00;;;;;;;;4925738;28;46344;-74
2022/05/11 01:35:32;;;;;;;;;4.67;3.00;;;;;;;;4933614;28;46659;-76
2022/05/11 01:38:24;;;;;;;;;4.67;4.00;;;;;;;;4936517;28;45600;-76
2022/05/11 01:40:49;;;;;;;;;3.67;3.67;;;;;;;;4937364;28;45481;-78
2022/05/11 01:43:16;;;;;;;;;4.00;4.00;;;;;;;;4923900;28;45967;-74
2022/05/11 01:45:41;;;;;;;;;7.33;4.00;;;;;;;;4938722;28;46221;-78
2022/05/11 01:48:06;;;;;;;;;4.33;4.00;;;;;;;;4940673;28;45395;-77
2022/05/11 01:50:31;;;;;;;;;4.33;3.33;;;;;;;;4922352;28;45316;-74
2022/05/11 01:52:57;;;;;;;;;3.33;3.00;;;;;;;;4939523;28;45556;-77
2022/05/11 01:55:43;;;;;;;;;8.00;5.00;;;;;;;;4941963;28;47271;-79
2022/05/11 02:00:58;;;;;;;;;4.33;4.33;;;;;;;;4903855;28;45626;-76
2022/05/11 02:03:23;;;;;;;;;5.33;4.00;;;;;;;;4918079;28;45621;-74
2022/05/11 02:08:34;;;;;;;;;4.00;4.00;;;;;;;;4917163;28;45612;-75
2022/05/11 02:11:00;;;;;;;;;9.00;5.00;;;;;;;;4917957;28;45401;-75
2022/05/11 02:13:25;;;;;;;;;4.33;4.33;;;;;;;;4917217;28;45827;-76
2022/05/11 02:15:51;;;;;;;;;3.00;3.00;;;;;;;;4919607;28;46427;-77
2022/05/11 02:18:16;;;;;;;;;6.67;3.67;;;;;;;;4910163;28;45404;-74
2022/05/11 02:20:42;;;;;;;;;5.00;5.00;;;;;;;;4936696;28;45414;-73
2022/05/11 02:23:07;;;;;;;;;5.33;5.00;;;;;;;;4936613;28;45786;-77
2022/05/11 02:25:32;;;;;;;;;4.00;4.00;;;;;;;;4919093;28;48559;-76
2022/05/11 02:27:58;;;;;;;;;4.00;4.00;;;;;;;;4916723;28;45818;-75
2022/05/11 02:30:25;;;;;;;;;7.00;5.00;;;;;;;;4936844;28;45746;-76
2022/05/11 02:32:50;;;;;;;;;5.00;5.00;;;;;;;;4937922;28;45397;-75
2022/05/11 02:35:16;;;;;;;;;4.33;4.33;;;;;;;;4937567;28;47005;-78
2022/05/11 02:37:42;;;;;;;;;8.33;7.33;;;;;;;;4938242;28;45720;-78
2022/05/11 02:40:24;;;;;;;;;4.33;4.33;;;;;;;;4935696;28;45721;-77
2022/05/11 02:42:50;;;;;;;;;5.67;4.33;;;;;;;;4921310;28;45661;-77
2022/05/11 02:45:15;;;;;;;;;7.00;5.00;;;;;;;;4916199;28;48088;-77
2022/05/11 02:47:41;;;;;;;;;10.33;6.33;;;;;;;;4937094;28;45455;-77
2022/05/11 02:50:07;;;;;;;;;4.33;4.33;;;;;;;;4957130;28;45715;-78
2022/05/11 02:52:33;;;;;;;;;5.00;3.33;;;;;;;;4903156;28;47278;-75
2022/05/11 02:54:59;;;;;;;;;4.00;4.00;;;;;;;;4917983;28;45467;-76
2022/05/11 02:57:41;;;;;;;;;5.67;4.00;;;;;;;;4903615;28;45364;-75
2022/05/11 03:00:09;;;;;;;;;7.00;5.33;;;;;;;;4930620;28;45445;-74
2022/05/11 03:02:35;;;;;;;;;7.00;5.00;;;;;;;;4946301;28;45796;-78
2022/05/11 03:05:00;;;;;;;;;6.00;4.00;;;;;;;;4943188;28;45429;-72
2022/05/11 03:07:25;;;;;;;;;6.67;5.00;;;;;;;;4920752;28;45582;-73
2022/05/11 03:09:53;;;;;;;;;4.67;4.67;;;;;;;;4922956;28;45415;-74
2022/05/11 03:12:18;;;;;;;;;8.00;5.67;;;;;;;;4900635;28;45761;-74
2022/05/11 03:14:44;;;;;;;;;6.00;6.00;;;;;;;;4899873;28;45888;-73
2022/05/11 03:17:09;;;;;;;;;7.00;5.00;;;;;;;;4924889;28;45401;-74
2022/05/11 03:19:35;;;;;;;;;4.33;4.33;;;;;;;;4937780;28;45372;-72
2022/05/11 03:22:00;;;;;;;;;6.33;5.00;;;;;;;;4921948;28;45512;-73
2022/05/11 03:24:25;;;;;;;;;9.00;3.33;;;;;;;;4918117;28;45309;-73
2022/05/11 03:26:51;;;;;;;;;7.00;5.00;;;;;;;;4916459;28;45698;-74
2022/05/11 03:29:16;;;;;;;;;5.00;5.00;;;;;;;;4916825;28;45705;-78
2022/05/11 03:34:36;;;;;;;;;6.00;4.67;;;;;;;;4899372;28;45524;-76
2022/05/11 03:34:39;;;;;;;;;7.67;4.67;;;;;;;;4915533;28;45729;-74
2022/05/11 03:37:10;;;;;;;;;8.33;7.67;;;;;;;;4916505;28;45434;-80
2022/05/11 03:39:36;;;;;;;;;6.33;6.00;;;;;;;;4917349;28;45436;-78
2022/05/11 03:42:03;;;;;;;;;6.00;6.00;;;;;;;;4918266;28;45439;-78
2022/05/11 03:44:28;;;;;;;;;4.00;4.00;;;;;;;;4918562;28;47490;-74
2022/05/11 03:46:53;;;;;;;;;5.00;5.00;;;;;;;;4905649;28;45657;-77
2022/05/11 03:49:19;;;;;;;;;9.67;6.67;;;;;;;;4936087;28;45607;-77
2022/05/11 03:51:44;;;;;;;;;9.33;9.33;;;;;;;;4918682;28;45605;-79
2022/05/11 03:54:09;;;;;;;;;8.67;8.33;;;;;;;;4933765;28;46874;-75
2022/05/11 03:56:35;;;;;;;;;7.00;7.00;;;;;;;;4929557;28;45367;-76
2022/05/11 03:59:00;;;;;;;;;11.33;9.33;;;;;;;;4898106;28;45327;-76
2022/05/11 04:01:25;;;;;;;;;11.00;10.00;;;;;;;;4943268;28;45772;-74
2022/05/11 04:03:51;;;;;;;;;9.67;8.67;;;;;;;;4934395;28;46549;-74
2022/05/11 04:06:16;;;;;;;;;12.00;9.33;;;;;;;;4935062;28;45804;-76
2022/05/11 04:08:42;;;;;;;;;7.00;7.00;;;;;;;;4934806;28;45882;-76
2022/05/11 04:11:07;;;;;;;;;14.33;8.67;;;;;;;;4934931;28;45539;-77
2022/05/11 04:13:33;;;;;;;;;8.67;7.67;;;;;;;;4920188;28;46694;-78
2022/05/11 04:15:58;;;;;;;;;8.33;8.00;;;;;;;;4935956;28;45581;-77
2022/05/11 04:18:23;;;;;;;;;9.33;9.33;;;;;;;;4915658;28;45376;-74
2022/05/11 04:20:48;;;;;;;;;8.00;7.33;;;;;;;;4913474;28;47350;-75
2022/05/11 04:23:14;;;;;;;;;10.00;8.67;;;;;;;;4929650;28;46706;-78
2022/05/11 04:25:39;;;;;;;;;10.00;9.00;;;;;;;;4922836;28;45644;-80
2022/05/11 04:28:09;;;;;;;;;8.33;8.33;;;;;;;;4907193;28;45639;-78
2022/05/11 04:30:34;;;;;;;;;12.67;9.00;;;;;;;;4927685;28;45429;-78
2022/05/11 04:33:00;;;;;;;;;9.33;9.33;;;;;;;;4921082;28;45429;-74
2022/05/11 04:35:30;;;;;;;;;11.33;9.33;;;;;;;;4921961;28;45426;-77
2022/05/11 04:37:59;;;;;;;;;10.33;9.00;;;;;;;;4923368;28;45880;-74
2022/05/11 04:40:25;;;;;;;;;26.33;21.00;;;;;;;;4916469;28;45763;-78
2022/05/11 04:42:50;;;;;;;;;24.00;21.00;;;;;;;;4923924;28;46181;-74
2022/05/11 04:45:15;;;;;;;;;12.67;10.00;;;;;;;;4900473;28;46123;-73
2022/05/11 04:47:41;;;;;;;;;18.00;16.67;;;;;;;;4922558;28;45756;-74
2022/05/11 04:50:07;;;;;;;;;15.67;15.33;;;;;;;;4910668;28;45979;-77
2022/05/11 04:52:32;;;;;;;;;12.67;12.67;;;;;;;;4913988;28;46054;-77
2022/05/11 04:54:57;;;;;;;;;11.00;11.00;;;;;;;;4904505;28;45591;-77
2022/05/11 04:57:22;;;;;;;;;15.33;13.00;;;;;;;;4899855;28;45509;-73
2022/05/11 04:59:49;;;;;;;;;16.33;14.33;;;;;;;;4916786;28;45735;-73
2022/05/11 05:02:17;;;;;;;;;13.33;11.33;;;;;;;;4911936;28;45962;-78
2022/05/11 05:04:42;;;;;;;;;10.33;8.67;;;;;;;;4920679;28;46823;-71
2022/05/11 05:07:07;;;;;;;;;11.33;9.67;;;;;;;;4927955;28;45391;-71
2022/05/11 05:09:33;;;;;;;;;12.33;11.00;;;;;;;;4936038;28;45832;-71
2022/05/11 05:11:58;;;;;;;;;9.67;9.00;;;;;;;;4916981;28;48085;-74
2022/05/11 05:14:23;;;;;;;;;10.33;10.00;;;;;;;;4911843;28;45489;-71
2022/05/11 05:16:49;;;;;;;;;8.33;8.33;;;;;;;;4936116;28;45932;-74
2022/05/11 05:19:15;;;;;;;;;11.67;8.67;;;;;;;;4928133;28;46073;-71
2022/05/11 05:21:40;;;;;;;;;8.67;8.67;;;;;;;;4933148;28;45799;-78
2022/05/11 05:24:06;;;;;;;;;10.00;9.00;;;;;;;;4939924;28;45584;-75
2022/05/11 05:26:31;;;;;;;;;8.00;8.00;;;;;;;;4939662;28;45847;-70
2022/05/11 05:31:41;;;;;;;;;11.33;8.67;;;;;;;;4939630;28;46040;-76
2022/05/11 05:34:07;;;;;;;;;9.00;9.00;;;;;;;;4933120;28;45752;-77
2022/05/11 05:36:36;;;;;;;;;11.50;9.00;;;;;;;;4943912;28;45435;-83
2022/05/11 05:39:02;;;;;;;;;8.00;8.00;;;;;;;;4918163;28;45651;-81
2022/05/11 05:41:28;;;;;;;;;11.67;10.00;;;;;;;;4928094;28;46546;-81
2022/05/11 05:43:54;;;;;;;;;9.67;9.33;;;;;;;;4918358;28;45416;-84
2022/05/11 05:46:19;;;;;;;;;6.33;6.33;;;;;;;;4923618;28;46002;-82
2022/05/11 05:48:45;;;;;;;;;6.67;6.00;;;;;;;;4935760;28;45496;-80
2022/05/11 05:51:11;;;;;;;;;11.33;10.33;;;;;;;;4917341;28;47523;-82
2022/05/11 05:53:39;;;;;;;;;15.33;11.33;;;;;;;;4937263;28;45612;-82
2022/05/11 05:56:08;;;;;;;;;9.00;9.00;;;;;;;;4940405;28;45836;-80
2022/05/11 05:58:34;;;;;;;;;8.00;8.00;;;;;;;;4916721;28;45786;-80
2022/05/11 06:00:59;;;;;;;;;11.00;9.50;;;;;;;;4938542;28;45447;-83
2022/05/11 06:03:26;;;;;;;;;8.00;6.75;;;;;;;;4940581;28;45581;-83
2022/05/11 06:05:52;;;;;;;;;8.00;6.75;;;;;;;;4919983;28;45411;-82
2022/05/11 06:08:18;;;;;;;;;6.25;6.25;;;;;;;;4952622;28;45467;-81
2022/05/11 06:10:44;;;;;;;;;8.50;7.50;;;;;;;;4968098;28;45536;-79
2022/05/11 06:13:12;;;;;;;;;5.75;5.75;;;;;;;;4958464;28;44907;-78
2022/05/11 06:15:39;;;;;;;;;7.00;7.00;;;;;;;;4944208;28;45795;-80
2022/05/11 06:18:05;;;;;;;;;8.50;8.50;;;;;;;;4934980;28;45516;-78
2022/05/11 06:20:30;;;;;;;;;7.50;7.00;;;;;;;;4922384;28;47267;-79
2022/05/11 06:22:56;;;;;;;;;9.00;8.00;;;;;;;;4917970;28;46018;-82
2022/05/11 06:25:22;;;;;;;;;7.00;7.00;;;;;;;;4921083;28;45478;-80
2022/05/11 06:27:48;;;;;;;;;6.25;6.25;;;;;;;;4916847;28;46085;-79
2022/05/11 06:30:13;;;;;;;;;6.00;6.00;;;;;;;;4931129;28;46372;-79
2022/05/11 06:32:54;;;;;;;;;9.00;9.00;;;;;;;;4913919;28;45851;-85
2022/05/11 06:35:20;;;;;;;;;7.50;7.25;;;;;;;;4903520;28;45922;-82
2022/05/11 06:37:46;;;;;;;;;8.33;8.00;;;;;;;;4919910;28;45726;-83
2022/05/11 06:40:13;;;;;;;;;8.00;6.00;;;;;;;;4917852;28;47162;-81
2022/05/11 06:42:42;;;;;;;;;8.67;7.00;;;;;;;;4921096;28;45460;-86
2022/05/11 06:45:19;;;;;;;;;7.33;7.33;;;;;;;;4925905;28;45378;-87
2022/05/11 06:47:58;;;;;;;;;6.33;6.00;;;;;;;;4926255;28;46134;-84
2022/05/11 06:50:25;;;;;;;;;4.00;4.00;;;;;;;;4928966;28;45825;-82
2022/05/11 06:52:54;;;;;;;;;7.67;7.33;;;;;;;;4912518;28;45793;-80
2022/05/11 07:00:48;;;;;;;;;6.67;6.67;;;;;;;;4930585;28;45811;-80
2022/05/11 07:03:13;;;;;;;;;9.00;9.00;;;;;;;;4933672;28;45740;-81
2022/05/11 07:05:39;;;;;;;;;8.33;8.33;;;;;;;;4919232;28;45412;-81
2022/05/11 07:08:09;;;;;;;;;8.00;5.67;;;;;;;;4926468;28;45477;-80
2022/05/11 07:10:38;;;;;;;;;6.33;6.33;;;;;;;;4940614;28;45467;-84
2022/05/11 07:13:04;;;;;;;;;7.00;7.00;;;;;;;;4923763;28;45600;-84
2022/05/11 07:15:30;;;;;;;;;8.33;6.33;;;;;;;;4930908;28;45787;-83
2022/05/11 07:17:57;;;;;;;;;8.67;7.00;;;;;;;;4936771;28;45830;-77
2022/05/11 07:20:29;;;;;;;;;7.67;7.67;;;;;;;;4927579;28;45520;-80
2022/05/11 07:22:55;;;;;;;;;9.33;6.00;;;;;;;;4941951;28;45777;-76
2022/05/11 07:25:21;;;;;;;;;10.33;7.00;;;;;;;;4928837;28;46672;-80
2022/05/11 07:27:47;;;;;;;;;6.00;5.33;;;;;;;;4917955;28;46198;-77
2022/05/11 07:30:30;;;;;;;;;7.33;6.33;;;;;;;;4914022;28;45477;-87
2022/05/11 07:32:55;;;;;;;;;8.00;7.00;;;;;;;;4920316;28;45944;-82
2022/05/11 07:35:20;;;;;;;;;6.00;6.00;;;;;;;;4922214;28;45944;-82
2022/05/11 07:37:47;;;;;;;;;6.33;6.33;;;;;;;;4920528;28;47770;-83
2022/05/11 07:40:13;;;;;;;;;4.00;4.00;;;;;;;;4930793;28;46795;-84
2022/05/11 07:42:38;;;;;;;;;5.00;5.00;;;;;;;;4921921;28;45535;-81
2022/05/11 07:45:04;;;;;;;;;11.67;8.67;;;;;;;;4926636;28;45529;-83
2022/05/11 07:47:29;;;;;;;;;7.00;7.00;;;;;;;;4915093;28;45885;-82
2022/05/11 07:49:55;;;;;;;;;6.67;6.67;;;;;;;;4934915;28;46374;-81
2022/05/11 07:52:20;;;;;;;;;5.67;4.67;;;;;;;;4928052;28;45418;-84
2022/05/11 07:54:46;;;;;;;;;4.67;4.67;;;;;;;;4929426;28;44701;-84
2022/05/11 08:00:03;;;;;;;;;6.00;6.00;;;;;;;;4937739;28;45621;-82
2022/05/11 08:02:29;;;;;;;;;6.00;5.33;;;;;;;;4930777;28;45527;-80
2022/05/11 08:04:59;;;;;;;;;5.33;5.33;;;;;;;;4932440;28;45733;-80
2022/05/11 08:07:34;;;;;;;;;3.67;3.00;;;;;;;;4926424;28;45751;-81
2022/05/11 08:09:59;;;;;;;;;2.33;2.33;;;;;;;;4930894;28;47249;-82
2022/05/11 08:12:26;;;;;;;;;3.00;3.00;;;;;;;;4924962;28;45568;-80
2022/05/11 08:14:52;;;;;;;;;4.00;4.00;;;;;;;;4932685;28;45524;-83
2022/05/11 08:17:28;;;;;;;;;4.33;4.33;;;;;;;;4928305;28;45653;-87
2022/05/11 08:19:54;;;;;;;;;4.33;4.33;;;;;;;;4914013;28;47528;-80
2022/05/11 08:22:20;;;;;;;;;5.33;5.33;;;;;;;;4927466;28;45688;-79
2022/05/11 08:24:45;;;;;;;;;5.33;5.33;;;;;;;;4906378;28;45778;-79
2022/05/11 08:27:11;;;;;;;;;4.33;4.33;;;;;;;;4919069;28;46883;-80
2022/05/11 08:35:04;;;;;;;;;5.67;5.67;;;;;;;;4925166;28;45895;-79
2022/05/11 08:37:32;;;;;;;;;2.33;2.33;;;;;;;;4915581;28;47407;-81
2022/05/11 08:39:58;;;;;;;;;2.67;2.00;;;;;;;;4917368;28;47899;-81
2022/05/11 08:42:25;;;;;;;;;1.67;1.33;;;;;;;;4923819;28;45987;-83
2022/05/11 08:44:50;;;;;;;;;3.00;1.33;;;;;;;;4917764;28;45519;-82
2022/05/11 08:47:27;;;;;;;;;1.00;1.00;;;;;;;;4914945;28;45676;-80
2022/05/11 08:49:52;;;;;;;;;3.00;3.00;;;;;;;;4918506;28;46779;-81
2022/05/11 08:52:36;;;;;;;;;4.00;4.00;;;;;;;;4916729;28;45697;-79
2022/05/11 08:55:10;;;;;;;;;1.67;1.67;;;;;;;;4911809;28;45766;-79
2022/05/11 08:57:36;;;;;;;;;1.33;1.33;;;;;;;;4913399;28;45981;-82
2022/05/11 09:00:07;;;;;;;;;3.67;2.33;;;;;;;;4931043;28;45397;-83
2022/05/11 09:02:50;;;;;;;;;1.33;1.33;;;;;;;;4925173;28;45724;-77
2022/05/11 09:05:20;;;;;;;;;2.67;2.67;;;;;;;;4927063;28;45536;-81
2022/05/11 09:07:49;;;;;;;;;1.00;1.00;;;;;;;;4916054;28;47233;-80
2022/05/11 09:10:26;;;;;;;;;3.00;2.00;;;;;;;;4930910;28;47028;-81
2022/05/11 09:12:52;;;;;;;;;2.00;2.00;;;;;;;;4934307;28;45817;-82
2022/05/11 09:15:17;;;;;;;;;3.00;3.00;;;;;;;;4934411;28;45646;-82
2022/05/11 09:17:44;;;;;;;;;1.33;1.33;;;;;;;;4909681;28;46256;-80
2022/05/11 09:20:11;;;;;;;;;1.33;1.33;;;;;;;;4918103;28;45730;-81
2022/05/11 09:23:02;;;;;;;;;1.00;1.00;;;;;;;;4922186;28;45451;-85
2022/05/11 09:25:32;;;;;;;;;1.67;1.67;;;;;;;;4931696;28;45513;-82
2022/05/11 09:28:13;;;;;;;;;3.00;3.00;;;;;;;;4905030;28;45813;-81
2022/05/11 09:30:40;;;;;;;;;2.00;1.67;;;;;;;;4911056;28;45755;-77
2022/05/11 09:33:13;;;;;;;;;2.33;2.00;;;;;;;;4910678;28;45773;-78
2022/05/11 09:35:40;;;;;;;;;3.00;2.33;;;;;;;;4908907;28;45377;-80
2022/05/11 09:38:05;;;;;;;;;2.00;2.00;;;;;;;;4927183;28;45434;-79
2022/05/11 09:40:31;;;;;;;;;2.00;2.00;;;;;;;;4921286;28;46398;-78
2022/05/11 09:43:02;;;;;;;;;7.00;6.00;;;;;;;;4911640;28;45484;-81
2022/05/11 09:45:45;;;;;;;;;5.00;5.00;;;;;;;;4917551;28;45800;-82
2022/05/11 09:48:16;;;;;;;;;4.67;3.00;;;;;;;;4899846;28;45832;-81
2022/05/11 09:50:45;;;;;;;;;2.33;2.00;;;;;;;;4920184;28;45627;-80
2022/05/11 09:53:51;;;;;;;;;6.67;6.67;;;;;;;;4922396;28;45607;-76
2022/05/11 09:56:23;;;;;;;;;2.00;2.00;;;;;;;;4906403;28;45499;-82
2022/05/11 09:58:48;;;;;;;;;2.33;2.33;;;;;;;;4916009;28;46604;-81
2022/05/11 10:01:22;;;;;;;;;3.00;3.00;;;;;;;;4925569;28;45849;-80
2022/05/11 10:03:53;;;;;;;;;3.33;3.00;;;;;;;;4927259;28;45598;-80
2022/05/11 10:06:20;;;;;;;;;3.00;3.00;;;;;;;;4910777;28;45820;-82
2022/05/11 10:09:04;;;;;;;;;2.67;2.33;;;;;;;;4929332;28;45579;-91
2022/05/11 10:11:36;;;;;;;;;1.33;1.33;;;;;;;;4927660;28;47195;-83
2022/05/11 10:23:06;;;;;;;;;2.00;2.00;;;;;;;;4937294;28;45562;-86
2022/05/11 10:29:28;;;;;;;;;3.00;1.00;;;;;;;;4920499;28;45794;-83
2022/05/11 10:32:04;;;;;;;;;1.67;1.67;;;;;;;;4841813;29;45807;-82
2022/05/11 10:34:48;;;;;;;;;2.00;2.00;;;;;;;;4845077;29;46992;-80
2022/05/11 10:37:37;;;;;;;;;2.00;2.00;;;;;;;;4899074;28;45578;-85
2022/05/11 10:40:08;;;;;;;;;4.00;2.00;;;;;;;;4930480;28;44894;-81
2022/05/11 10:42:35;;;;;;;;;3.67;2.00;;;;;;;;4910696;28;47278;-79
2022/05/11 10:45:19;;;;;;;;;3.00;2.00;;;;;;;;4933035;28;45937;-77
2022/05/11 10:47:47;;;;;;;;;4.00;2.33;;;;;;;;4924572;28;45899;-78
2022/05/11 10:50:33;;;;;;;;;2.00;2.00;;;;;;;;4924997;28;45699;-82
2022/05/11 10:53:04;;;;;;;;;1.67;1.67;;;;;;;;4922902;28;46583;-83
2022/05/11 10:55:54;;;;;;;;;2.67;2.00;;;;;;;;4919837;28;46231;-78
2022/05/11 10:58:38;;;;;;;;;3.00;2.00;;;;;;;;4925371;28;45914;-80
2022/05/11 11:01:16;;;;;;;;;2.00;2.00;;;;;;;;4927787;28;45647;-80
2022/05/11 11:04:00;;;;;;;;;5.00;2.67;;;;;;;;4919197;28;45853;-76
2022/05/11 11:09:36;;;;;;;;;3.00;3.00;;;;;;;;4923168;28;45697;-77
2022/05/11 11:12:07;;;;;;;;;5.00;5.00;;;;;;;;4918904;28;45969;-79
2022/05/11 11:14:35;;;;;;;;;5.00;4.00;;;;;;;;4916651;28;45626;-76
2022/05/11 11:17:02;;;;;;;;;2.67;2.67;;;;;;;;4911986;28;48147;-80
2022/05/11 11:19:27;;;;;;;;;1.33;1.33;;;;;;;;4910607;28;45470;-80
2022/05/11 11:21:56;;;;;;;;;3.00;3.00;;;;;;;;4929032;28;45753;-79
2022/05/11 11:24:23;;;;;;;;;2.00;2.00;;;;;;;;4913565;28;45772;-80
2022/05/11 11:26:57;;;;;;;;;3.50;2.50;;;;;;;;4920539;28;46585;-78
2022/05/11 11:29:32;;;;;;;;;2.00;2.00;;;;;;;;4922311;28;45669;-77
2022/05/11 11:31:58;;;;;;;;;4.25;2.50;;;;;;;;4909089;28;45383;-77
2022/05/11 11:34:25;;;;;;;;;2.00;2.00;;;;;;;;4911633;28;45962;-76
2022/05/11 11:36:51;;;;;;;;;4.25;4.25;;;;;;;;4905433;28;46767;-78
2022/05/11 11:39:35;;;;;;;;;3.25;3.25;;;;;;;;4922057;28;45820;-79
2022/05/11 11:42:02;;;;;;;;;2.00;2.00;;;;;;;;4923177;28;45564;-77
2022/05/11 11:44:30;;;;;;;;;5.25;3.00;;;;;;;;4915526;28;47049;-79
2022/05/11 11:46:56;;;;;;;;;5.00;4.00;;;;;;;;4915438;28;47179;-78
2022/05/11 11:49:24;;;;;;;;;3.00;3.00;;;;;;;;4926231;28;45921;-78
2022/05/11 11:51:49;;;;;;;;;4.33;4.00;;;;;;;;4905050;28;45905;-76
2022/05/11 11:54:26;;;;;;;;;3.00;3.00;;;;;;;;4904787;28;46190;-82
2022/05/11 11:56:54;;;;;;;;;4.00;3.00;;;;;;;;4933987;28;45475;-81
2022/05/11 11:59:25;;;;;;;;;2.00;2.00;;;;;;;;4934102;28;46063;-82
2022/05/11 12:01:59;;;;;;;;;2.33;2.33;;;;;;;;4920737;28;45609;-81
2022/05/11 12:04:27;;;;;;;;;2.50;2.00;;;;;;;;4916993;28;45924;-80
2022/05/11 12:15:46;;;;;;;;;1.33;1.33;;;;;;;;4929581;28;45780;-81
2022/05/11 12:18:24;;;;;;;;;1.75;1.75;;;;;;;;4929865;28;45783;-83
2022/05/11 12:20:51;;;;;;;;;2.75;1.75;;;;;;;;4929662;28;45835;-81
2022/05/11 12:23:20;;;;;;;;;2.00;2.00;;;;;;;;4919973;28;45705;-83
2022/05/11 12:25:56;;;;;;;;;1.50;1.50;;;;;;;;4910086;28;45818;-82
2022/05/11 12:28:30;;;;;;;;;3.25;2.00;;;;;;;;4935511;28;46182;-81
2022/05/11 12:30:55;;;;;;;;;2.33;2.00;;;;;;;;4906237;28;45645;-82
2022/05/11 12:33:23;;;;;;;;;1.00;1.00;;;;;;;;4920380;28;45660;-80
2022/05/11 12:35:49;;;;;;;;;2.67;1.00;;;;;;;;4919789;28;46690;-83
2022/05/11 12:38:24;;;;;;;;;3.25;2.25;;;;;;;;4913080;28;47011;-81
2022/05/11 12:40:51;;;;;;;;;2.00;0.50;;;;;;;;4924020;28;45589;-82
2022/05/11 12:43:23;;;;;;;;;1.00;0.00;;;;;;;;4913735;28;45790;-80
2022/05/11 12:45:49;;;;;;;;;2.67;2.67;;;;;;;;4926311;28;45820;-83
2022/05/11 12:48:16;;;;;;;;;1.50;1.50;;;;;;;;4910112;28;47688;-82
2022/05/11 12:50:51;;;;;;;;;2.00;2.00;;;;;;;;4914199;28;45832;-81
2022/05/11 12:53:16;;;;;;;;;2.33;1.33;;;;;;;;4905322;28;45472;-78
2022/05/11 12:55:43;;;;;;;;;1.75;1.75;;;;;;;;4922685;28;45864;-80
2022/05/11 12:58:15;;;;;;;;;1.00;1.00;;;;;;;;4916714;28;47139;-80
2022/05/11 13:00:40;;;;;;;;;2.50;2.00;;;;;;;;4931444;28;45478;-81
2022/05/11 13:03:42;;;;;;;;;0.50;0.50;;;;;;;;4909713;28;45516;-82
2022/05/11 13:06:22;;;;;;;;;5.00;1.00;;;;;;;;4869897;29;46197;-84
2022/05/11 13:09:08;;;;;;;;;3.33;2.00;;;;;;;;4921531;28;45680;-82
2022/05/11 13:11:34;;;;;;;;;4.75;3.00;;;;;;;;4923842;28;45766;-81
2022/05/11 13:13:59;;;;;;;;;1.75;1.75;;;;;;;;4930338;28;45714;-83
2022/05/11 13:16:27;;;;;;;;;3.00;1.00;;;;;;;;4917257;28;45577;-83
2022/05/11 13:19:15;;;;;;;;;1.00;1.00;;;;;;;;4910164;28;45570;-86
2022/05/11 13:21:45;;;;;;;;;1.25;1.25;;;;;;;;4930521;28;45692;-84
2022/05/11 13:24:10;;;;;;;;;3.25;2.75;;;;;;;;4910586;28;45543;-83
2022/05/11 13:26:41;;;;;;;;;2.50;2.00;;;;;;;;4917831;28;45466;-81
2022/05/11 13:29:21;;;;;;;;;1.00;1.00;;;;;;;;4917584;28;48239;-82
2022/05/11 13:32:00;;;;;;;;;1.00;1.00;;;;;;;;4938742;28;45951;-81
2022/05/11 13:34:31;;;;;;;;;2.00;2.00;;;;;;;;4938948;28;45795;-82
2022/05/11 13:36:57;;;;;;;;;1.00;1.00;;;;;;;;4920666;28;45972;-81
2022/05/11 13:39:27;;;;;;;;;2.25;1.75;;;;;;;;4908053;28;45580;-80
2022/05/11 13:41:55;;;;;;;;;0.75;0.75;;;;;;;;4902795;28;45792;-80
2022/05/11 13:44:23;;;;;;;;;3.50;1.00;;;;;;;;4919166;28;45882;-80
2022/05/11 13:50:04;;;;;;;;;0.50;0.50;;;;;;;;4926595;28;45521;-81
2022/05/11 13:52:34;;;;;;;;;0.33;0.00;;;;;;;;4934111;28;45760;-79
2022/05/11 13:54:59;;;;;;;;;1.00;1.00;;;;;;;;4928587;28;45300;-80
2022/05/11 13:57:35;;;;;;;;;1.25;1.25;;;;;;;;4951627;28;45298;-80
2022/05/11 14:00:09;;;;;;;;;0.00;0.00;;;;;;;;4943150;28;46354;-80
2022/05/11 14:02:35;;;;;;;;;0.00;0.00;;;;;;;;4949925;28;45384;-82
2022/05/11 14:05:00;;;;;;;;;0.00;0.00;;;;;;;;4943610;28;45546;-80
2022/05/11 14:07:27;;;;;;;;;0.00;0.00;;;;;;;;4944099;28;45717;-84
2022/05/11 14:09:53;;;;;;;;;0.00;0.00;;;;;;;;4943837;28;46632;-81
2022/05/11 14:12:18;;;;;;;;;2.25;1.00;;;;;;;;4942725;28;45790;-81
2022/05/11 14:14:44;;;;;;;;;1.00;1.00;;;;;;;;4940217;28;45438;-83
2022/05/11 14:17:12;;;;;;;;;2.00;0.75;;;;;;;;4920304;28;46116;-80
2022/05/11 14:19:39;;;;;;;;;2.00;0.00;;;;;;;;4939300;28;45415;-80
2022/05/11 14:22:05;;;;;;;;;0.25;0.25;;;;;;;;4909468;28;45794;-80
2022/05/11 14:24:31;;;;;;;;;0.00;0.00;;;;;;;;4919555;28;45870;-80
2022/05/11 14:26:56;;;;;;;;;0.00;0.00;;;;;;;;4920600;28;45488;-80
2022/05/11 14:29:21;;;;;;;;;1.75;0.00;;;;;;;;4928338;28;45652;-83
2022/05/11 14:31:47;;;;;;;;;0.75;0.00;;;;;;;;4926952;28;45907;-84
2022/05/11 14:34:16;;;;;;;;;1.00;1.00;;;;;;;;4921546;28;45833;-82
2022/05/11 14:36:45;;;;;;;;;2.00;2.00;;;;;;;;4921621;28;45611;-83
2022/05/11 14:39:20;;;;;;;;;1.00;1.00;;;;;;;;4908177;28;47093;-85
2022/05/11 14:41:46;;;;;;;;;0.00;0.00;;;;;;;;4920040;28;45762;-81
2022/05/11 14:44:11;;;;;;;;;1.00;1.00;;;;;;;;4922233;28;45524;-82
2022/05/11 14:46:39;;;;;;;;;1.00;1.00;;;;;;;;4919703;28;45637;-82
2022/05/11 14:49:05;;;;;;;;;0.50;0.50;;;;;;;;4939057;28;46202;-79
2022/05/11 14:51:31;;;;;;;;;0.50;0.50;;;;;;;;4926924;28;45446;-81
2022/05/11 14:53:56;;;;;;;;;1.00;1.00;;;;;;;;4916840;28;44767;-85
2022/05/11 14:56:22;;;;;;;;;0.00;0.00;;;;;;;;4917414;28;45644;-82
2022/05/11 15:04:40;;;;;;;;;0.00;0.00;;;;;;;;4938489;28;45391;-85
2022/05/11 15:07:05;;;;;;;;;1.00;1.00;;;;;;;;4935713;28;45592;-84
2022/05/11 15:09:31;;;;;;;;;1.00;1.00;;;;;;;;4933121;28;45542;-85
2022/05/11 15:14:42;;;;;;;;;1.50;1.50;;;;;;;;4934777;28;45786;-82
2022/05/11 15:17:12;;;;;;;;;1.00;1.00;;;;;;;;4916672;28;46126;-82
2022/05/11 15:19:37;;;;;;;;;2.67;1.00;;;;;;;;4930725;28;46411;-84
2022/05/11 15:22:03;;;;;;;;;3.00;2.00;;;;;;;;4940943;28;45320;-85
2022/05/11 15:24:29;;;;;;;;;1.67;1.67;;;;;;;;4929950;28;45504;-81
2022/05/11 15:26:54;;;;;;;;;2.33;2.00;;;;;;;;4928438;28;45449;-81
2022/05/11 15:29:20;;;;;;;;;3.00;3.00;;;;;;;;4919008;28;48487;-82
2022/05/11 15:31:47;;;;;;;;;2.00;2.00;;;;;;;;4913764;28;45416;-80
2022/05/11 15:34:14;;;;;;;;;3.25;1.75;;;;;;;;4923468;28;45470;-80
2022/05/11 15:36:39;;;;;;;;;2.00;2.00;;;;;;;;4911916;28;45619;-80
2022/05/11 15:39:05;;;;;;;;;3.25;2.00;;;;;;;;4903176;28;47175;-80
2022/05/11 15:41:30;;;;;;;;;2.50;2.50;;;;;;;;4914008;28;45782;-85
2022/05/11 15:43:56;;;;;;;;;3.67;3.67;;;;;;;;4921617;28;45634;-80
2022/05/11 15:46:24;;;;;;;;;3.00;3.00;;;;;;;;4921656;28;45396;-83
2022/05/11 15:48:50;;;;;;;;;8.33;6.67;;;;;;;;4929288;28;45416;-83
2022/05/11 15:51:17;;;;;;;;;2.00;2.00;;;;;;;;4914233;28;45657;-83